createdAt,value
2018-12-23T00:00:08.107Z,0
2018-12-23T00:00:20.511Z,0
2018-12-23T00:00:32.874Z,0
2018-12-23T00:00:47.239Z,0
2018-12-23T00:00:59.614Z,0
2018-12-23T00:01:11.984Z,0
2018-12-23T00:01:24.358Z,0
2018-12-23T00:01:36.738Z,0
2018-12-23T00:01:49.104Z,0
2018-12-23T00:02:01.539Z,0
2018-12-23T00:02:13.926Z,0
2018-12-23T00:02:26.266Z,0
2018-12-23T00:02:38.631Z,0
2018-12-23T00:02:50.998Z,0
2018-12-23T00:03:03.364Z,0
2018-12-23T00:03:15.734Z,0
2018-12-23T00:03:28.113Z,0
2018-12-23T00:03:40.477Z,0
2018-12-23T00:03:52.962Z,0
2018-12-23T00:04:05.332Z,0
2018-12-23T00:04:17.708Z,0
2018-12-23T00:04:30.080Z,0
2018-12-23T00:04:42.428Z,0
2018-12-23T00:04:54.845Z,0
2018-12-23T00:05:14.840Z,0
2018-12-23T00:05:27.200Z,0
2018-12-23T00:05:39.629Z,0
2018-12-23T00:05:52.111Z,0
2018-12-23T00:06:04.457Z,0
2018-12-23T00:06:16.905Z,0
2018-12-23T00:06:29.331Z,0
2018-12-23T00:06:41.701Z,0
2018-12-23T00:06:54.043Z,0
2018-12-23T00:07:06.387Z,0
2018-12-23T00:07:18.759Z,0
2018-12-23T00:07:31.123Z,0
2018-12-23T00:07:43.476Z,0
2018-12-23T00:07:55.839Z,0
2018-12-23T00:08:08.210Z,0
2018-12-23T00:08:20.760Z,0
2018-12-23T00:08:33.221Z,0
2018-12-23T00:08:45.603Z,0
2018-12-23T00:08:57.979Z,0
2018-12-23T00:09:10.320Z,0
2018-12-23T00:09:22.716Z,0
2018-12-23T00:09:35.063Z,0
2018-12-23T00:09:47.429Z,0
2018-12-23T00:09:59.793Z,0
2018-12-23T00:10:12.184Z,0
2018-12-23T00:10:24.587Z,0
2018-12-23T00:10:37.011Z,0
2018-12-23T00:10:49.389Z,0
2018-12-23T00:11:01.802Z,0
2018-12-23T00:11:14.127Z,0
2018-12-23T00:11:26.475Z,0
2018-12-23T00:11:38.895Z,0
2018-12-23T00:11:51.240Z,0
2018-12-23T00:12:03.594Z,0
2018-12-23T00:12:16.051Z,0
2018-12-23T00:12:28.401Z,0
2018-12-23T00:12:40.754Z,0
2018-12-23T00:12:53.102Z,0
2018-12-23T00:13:05.433Z,0
2018-12-23T00:13:17.799Z,0
2018-12-23T00:13:30.172Z,0
2018-12-23T00:13:42.666Z,0
2018-12-23T00:13:55.047Z,0
2018-12-23T00:14:07.418Z,0
2018-12-23T00:14:19.772Z,0
2018-12-23T00:14:32.126Z,0
2018-12-23T00:14:44.507Z,0
2018-12-23T00:14:56.882Z,0
2018-12-23T00:15:09.251Z,3.218688
2018-12-23T00:15:21.611Z,6.437376
2018-12-23T00:15:34.088Z,6.437376
2018-12-23T00:15:46.461Z,6.437376
2018-12-23T00:15:58.818Z,6.437376
2018-12-23T00:16:11.262Z,3.218688
2018-12-23T00:16:23.621Z,3.218688
2018-12-23T00:16:35.983Z,3.218688
2018-12-23T00:16:48.337Z,3.218688
2018-12-23T00:17:00.694Z,3.218688
2018-12-23T00:17:13.039Z,1.609344
2018-12-23T00:17:25.497Z,3.218688
2018-12-23T00:17:37.848Z,3.218688
2018-12-23T00:17:50.332Z,3.218688
2018-12-23T00:18:02.742Z,3.218688
2018-12-23T00:18:15.217Z,1.609344
2018-12-23T00:18:27.560Z,1.609344
2018-12-23T00:18:39.921Z,3.218688
2018-12-23T00:18:52.272Z,6.437376
2018-12-23T00:19:04.720Z,4.828032
2018-12-23T00:19:17.088Z,4.828032
2018-12-23T00:19:29.421Z,4.828032
2018-12-23T00:19:41.902Z,6.437376
2018-12-23T00:19:54.389Z,6.437376
2018-12-23T00:20:06.722Z,3.218688
2018-12-23T00:20:19.148Z,3.218688
2018-12-23T00:20:31.501Z,3.218688
2018-12-23T00:20:43.854Z,3.218688
2018-12-23T00:20:56.227Z,3.218688
2018-12-23T00:21:10.761Z,1.609344
2018-12-23T00:21:23.153Z,1.609344
2018-12-23T00:21:35.529Z,1.609344
2018-12-23T00:21:48.000Z,1.609344
2018-12-23T00:22:00.359Z,1.609344
2018-12-23T00:22:12.738Z,0
2018-12-23T00:22:25.111Z,0
2018-12-23T00:22:37.482Z,0
2018-12-23T00:22:49.833Z,0
2018-12-23T00:23:02.185Z,0
2018-12-23T00:23:14.580Z,0
2018-12-23T00:23:26.936Z,0
2018-12-23T00:23:39.288Z,0
2018-12-23T00:23:51.766Z,0
2018-12-23T00:24:04.143Z,0
2018-12-23T00:24:16.637Z,1.609344
2018-12-23T00:24:29.028Z,3.218688
2018-12-23T00:24:41.389Z,11.265408
2018-12-23T00:24:53.746Z,11.265408
2018-12-23T00:25:06.124Z,6.437376
2018-12-23T00:25:18.480Z,6.437376
2018-12-23T00:25:30.909Z,6.437376
2018-12-23T00:25:43.310Z,6.437376
2018-12-23T00:25:55.693Z,6.437376
2018-12-23T00:26:08.038Z,1.609344
2018-12-23T00:26:20.399Z,1.609344
2018-12-23T00:26:32.772Z,1.609344
2018-12-23T00:26:45.287Z,1.609344
2018-12-23T00:26:59.110Z,1.609344
2018-12-23T00:27:11.756Z,3.218688
2018-12-23T00:27:24.213Z,3.218688
2018-12-23T00:27:36.703Z,3.218688
2018-12-23T00:27:49.048Z,3.218688
2018-12-23T00:28:01.413Z,3.218688
2018-12-23T00:28:13.752Z,3.218688
2018-12-23T00:28:26.118Z,3.218688
2018-12-23T00:28:38.510Z,3.218688
2018-12-23T00:28:50.948Z,3.218688
2018-12-23T00:29:03.293Z,1.609344
2018-12-23T00:29:15.761Z,1.609344
2018-12-23T00:29:28.122Z,3.218688
2018-12-23T00:29:40.504Z,3.218688
2018-12-23T00:29:52.855Z,3.218688
2018-12-23T00:30:05.207Z,1.609344
2018-12-23T00:30:17.644Z,8.04672
2018-12-23T00:30:30.026Z,8.04672
2018-12-23T00:30:42.389Z,8.04672
2018-12-23T00:30:54.763Z,8.04672
2018-12-23T00:31:07.181Z,4.828032
2018-12-23T00:31:19.554Z,6.437376
2018-12-23T00:31:31.932Z,6.437376
2018-12-23T00:31:44.307Z,6.437376
2018-12-23T00:31:56.754Z,6.437376
2018-12-23T00:32:09.121Z,6.437376
2018-12-23T00:32:21.480Z,6.437376
2018-12-23T00:32:33.841Z,8.04672
2018-12-23T00:32:46.232Z,8.04672
2018-12-23T00:32:58.608Z,8.04672
2018-12-23T00:33:11.047Z,3.218688
2018-12-23T00:33:25.331Z,3.218688
2018-12-23T00:33:37.905Z,3.218688
2018-12-23T00:33:50.262Z,3.218688
2018-12-23T00:34:02.626Z,3.218688
2018-12-23T00:34:14.996Z,3.218688
2018-12-23T00:34:27.397Z,3.218688
2018-12-23T00:34:39.775Z,3.218688
2018-12-23T00:34:52.129Z,3.218688
2018-12-23T00:35:04.491Z,3.218688
2018-12-23T00:35:25.662Z,3.218688
2018-12-23T00:35:38.020Z,3.218688
2018-12-23T00:35:50.605Z,4.828032
2018-12-23T00:36:03.090Z,3.218688
2018-12-23T00:36:15.543Z,3.218688
2018-12-23T00:36:27.914Z,3.218688
2018-12-23T00:36:40.389Z,3.218688
2018-12-23T00:36:52.753Z,4.828032
2018-12-23T00:37:05.127Z,1.609344
2018-12-23T00:37:17.647Z,1.609344
2018-12-23T00:37:30.001Z,3.218688
2018-12-23T00:37:42.361Z,3.218688
2018-12-23T00:37:54.726Z,3.218688
2018-12-23T00:38:07.123Z,1.609344
2018-12-23T00:38:19.559Z,1.609344
2018-12-23T00:38:31.924Z,1.609344
2018-12-23T00:38:44.385Z,1.609344
2018-12-23T00:38:56.734Z,1.609344
2018-12-23T00:39:09.221Z,0
2018-12-23T00:39:21.769Z,1.609344
2018-12-23T00:39:34.134Z,1.609344
2018-12-23T00:39:46.510Z,1.609344
2018-12-23T00:39:59.029Z,1.609344
2018-12-23T00:40:11.527Z,1.609344
2018-12-23T00:40:23.884Z,3.218688
2018-12-23T00:40:36.257Z,3.218688
2018-12-23T00:40:48.585Z,3.218688
2018-12-23T00:41:00.923Z,3.218688
2018-12-23T00:41:13.507Z,3.218688
2018-12-23T00:41:25.888Z,3.218688
2018-12-23T00:41:40.065Z,3.218688
2018-12-23T00:41:52.450Z,3.218688
2018-12-23T00:42:04.801Z,3.218688
2018-12-23T00:42:17.157Z,3.218688
2018-12-23T00:42:29.613Z,3.218688
2018-12-23T00:42:41.977Z,6.437376
2018-12-23T00:42:54.347Z,6.437376
2018-12-23T00:43:06.721Z,1.609344
2018-12-23T00:43:19.148Z,3.218688
2018-12-23T00:43:31.515Z,3.218688
2018-12-23T00:43:43.867Z,4.828032
2018-12-23T00:43:56.277Z,6.437376
2018-12-23T00:44:08.729Z,3.218688
2018-12-23T00:44:21.086Z,3.218688
2018-12-23T00:44:33.437Z,3.218688
2018-12-23T00:44:45.785Z,3.218688
2018-12-23T00:44:58.150Z,3.218688
2018-12-23T00:45:10.532Z,3.218688
2018-12-23T00:45:22.895Z,3.218688
2018-12-23T00:45:35.542Z,3.218688
2018-12-23T00:45:47.916Z,3.218688
2018-12-23T00:46:00.288Z,3.218688
2018-12-23T00:46:12.684Z,3.218688
2018-12-23T00:46:25.132Z,3.218688
2018-12-23T00:46:37.535Z,3.218688
2018-12-23T00:46:50.056Z,3.218688
2018-12-23T00:47:02.418Z,3.218688
2018-12-23T00:47:14.915Z,3.218688
2018-12-23T00:47:27.250Z,6.437376
2018-12-23T00:47:39.610Z,6.437376
2018-12-23T00:47:51.954Z,6.437376
2018-12-23T00:48:04.310Z,0
2018-12-23T00:48:16.658Z,1.609344
2018-12-23T00:48:29.056Z,1.609344
2018-12-23T00:48:41.508Z,3.218688
2018-12-23T00:48:53.950Z,3.218688
2018-12-23T00:49:06.307Z,3.218688
2018-12-23T00:49:18.658Z,3.218688
2018-12-23T00:49:31.024Z,3.218688
2018-12-23T00:49:43.478Z,4.828032
2018-12-23T00:49:55.857Z,6.437376
2018-12-23T00:50:08.442Z,3.218688
2018-12-23T00:50:20.813Z,4.828032
2018-12-23T00:50:33.162Z,4.828032
2018-12-23T00:50:45.534Z,4.828032
2018-12-23T00:50:57.879Z,4.828032
2018-12-23T00:51:10.367Z,3.218688
2018-12-23T00:51:22.720Z,3.218688
2018-12-23T00:51:35.052Z,4.828032
2018-12-23T00:51:47.405Z,4.828032
2018-12-23T00:51:59.766Z,4.828032
2018-12-23T00:52:12.125Z,4.828032
2018-12-23T00:52:24.621Z,4.828032
2018-12-23T00:52:36.983Z,4.828032
2018-12-23T00:52:49.466Z,4.828032
2018-12-23T00:53:01.826Z,8.04672
2018-12-23T00:53:14.268Z,6.437376
2018-12-23T00:53:26.619Z,6.437376
2018-12-23T00:53:39.002Z,6.437376
2018-12-23T00:53:51.346Z,6.437376
2018-12-23T00:54:03.864Z,4.828032
2018-12-23T00:54:16.212Z,4.828032
2018-12-23T00:54:28.601Z,4.828032
2018-12-23T00:54:40.962Z,4.828032
2018-12-23T00:54:53.337Z,4.828032
2018-12-23T00:55:05.984Z,6.437376
2018-12-23T00:55:18.355Z,6.437376
2018-12-23T00:55:30.696Z,6.437376
2018-12-23T00:55:43.054Z,6.437376
2018-12-23T00:55:55.391Z,6.437376
2018-12-23T00:56:07.762Z,8.04672
2018-12-23T00:56:20.089Z,8.04672
2018-12-23T00:56:32.483Z,8.04672
2018-12-23T00:56:44.813Z,8.04672
2018-12-23T00:56:57.213Z,8.04672
2018-12-23T00:57:09.560Z,4.828032
2018-12-23T00:57:23.841Z,4.828032
2018-12-23T00:57:36.277Z,4.828032
2018-12-23T00:57:48.629Z,4.828032
2018-12-23T00:58:00.984Z,4.828032
2018-12-23T00:58:13.368Z,3.218688
2018-12-23T00:58:25.814Z,3.218688
2018-12-23T00:58:38.156Z,3.218688
2018-12-23T00:58:50.515Z,3.218688
2018-12-23T00:59:02.846Z,3.218688
2018-12-23T00:59:15.196Z,3.218688
2018-12-23T00:59:27.544Z,3.218688
2018-12-23T00:59:39.962Z,3.218688
2018-12-23T00:59:52.317Z,6.437376
2018-12-23T01:00:04.705Z,3.218688
2018-12-23T01:00:17.185Z,3.218688
2018-12-23T01:00:29.560Z,3.218688
2018-12-23T01:00:41.942Z,3.218688
2018-12-23T01:00:54.382Z,3.218688
2018-12-23T01:01:06.798Z,1.609344
2018-12-23T01:01:19.161Z,3.218688
2018-12-23T01:01:31.507Z,3.218688
2018-12-23T01:01:43.933Z,8.04672
2018-12-23T01:01:56.266Z,8.04672
2018-12-23T01:02:08.630Z,4.828032
2018-12-23T01:02:20.986Z,4.828032
2018-12-23T01:02:33.344Z,4.828032
2018-12-23T01:02:45.849Z,4.828032
2018-12-23T01:02:58.181Z,4.828032
2018-12-23T01:03:10.535Z,3.218688
2018-12-23T01:03:22.886Z,3.218688
2018-12-23T01:03:35.289Z,3.218688
2018-12-23T01:03:47.633Z,3.218688
2018-12-23T01:04:00.078Z,3.218688
2018-12-23T01:04:12.431Z,3.218688
2018-12-23T01:04:24.829Z,6.437376
2018-12-23T01:04:37.200Z,9.656064
2018-12-23T01:04:49.725Z,9.656064
2018-12-23T01:05:02.087Z,9.656064
2018-12-23T01:05:14.566Z,8.04672
2018-12-23T01:05:35.516Z,8.04672
2018-12-23T01:05:47.875Z,8.04672
2018-12-23T01:06:00.224Z,8.04672
2018-12-23T01:06:12.612Z,4.828032
2018-12-23T01:06:24.957Z,8.04672
2018-12-23T01:06:37.469Z,8.04672
2018-12-23T01:06:49.842Z,8.04672
2018-12-23T01:07:02.186Z,8.04672
2018-12-23T01:07:14.534Z,9.656064
2018-12-23T01:07:26.911Z,11.265408
2018-12-23T01:07:39.248Z,11.265408
2018-12-23T01:07:51.590Z,11.265408
2018-12-23T01:08:03.930Z,6.437376
2018-12-23T01:08:16.388Z,6.437376
2018-12-23T01:08:28.743Z,8.04672
2018-12-23T01:08:41.140Z,9.656064
2018-12-23T01:08:53.474Z,9.656064
2018-12-23T01:09:05.837Z,4.828032
2018-12-23T01:09:18.216Z,8.04672
2018-12-23T01:09:30.571Z,8.04672
2018-12-23T01:09:45.207Z,8.04672
2018-12-23T01:09:57.541Z,8.04672
2018-12-23T01:10:09.886Z,6.437376
2018-12-23T01:10:22.227Z,8.04672
2018-12-23T01:10:34.575Z,8.04672
2018-12-23T01:10:46.923Z,8.04672
2018-12-23T01:10:59.432Z,8.04672
2018-12-23T01:11:11.893Z,4.828032
2018-12-23T01:11:24.322Z,8.04672
2018-12-23T01:11:36.662Z,8.04672
2018-12-23T01:11:49.024Z,8.04672
2018-12-23T01:12:01.358Z,8.04672
2018-12-23T01:12:13.716Z,3.218688
2018-12-23T01:12:26.073Z,3.218688
2018-12-23T01:12:38.438Z,3.218688
2018-12-23T01:12:50.790Z,3.218688
2018-12-23T01:13:03.175Z,1.609344
2018-12-23T01:13:15.514Z,1.609344
2018-12-23T01:13:27.841Z,3.218688
2018-12-23T01:13:40.378Z,3.218688
2018-12-23T01:13:52.755Z,3.218688
2018-12-23T01:14:05.123Z,3.218688
2018-12-23T01:14:17.579Z,8.04672
2018-12-23T01:14:29.942Z,8.04672
2018-12-23T01:14:42.281Z,8.04672
2018-12-23T01:14:54.617Z,8.04672
2018-12-23T01:15:06.966Z,3.218688
2018-12-23T01:15:19.351Z,3.218688
2018-12-23T01:15:31.711Z,3.218688
2018-12-23T01:15:44.067Z,3.218688
2018-12-23T01:15:56.507Z,3.218688
2018-12-23T01:16:08.859Z,0
2018-12-23T01:16:21.218Z,0
2018-12-23T01:16:33.566Z,0
2018-12-23T01:16:45.915Z,3.218688
2018-12-23T01:16:58.307Z,6.437376
2018-12-23T01:17:10.768Z,4.828032
2018-12-23T01:17:23.145Z,6.437376
2018-12-23T01:17:35.616Z,6.437376
2018-12-23T01:17:47.978Z,6.437376
2018-12-23T01:18:00.365Z,6.437376
2018-12-23T01:18:12.890Z,3.218688
2018-12-23T01:18:25.393Z,3.218688
2018-12-23T01:18:37.722Z,3.218688
2018-12-23T01:18:50.063Z,3.218688
2018-12-23T01:19:02.426Z,3.218688
2018-12-23T01:19:14.756Z,3.218688
2018-12-23T01:19:27.104Z,3.218688
2018-12-23T01:19:39.442Z,3.218688
2018-12-23T01:19:51.897Z,4.828032
2018-12-23T01:20:04.349Z,1.609344
2018-12-23T01:20:16.689Z,1.609344
2018-12-23T01:20:29.053Z,1.609344
2018-12-23T01:20:41.471Z,1.609344
2018-12-23T01:20:53.811Z,3.218688
2018-12-23T01:21:06.177Z,0
2018-12-23T01:21:18.523Z,1.609344
2018-12-23T01:21:30.870Z,1.609344
2018-12-23T01:21:43.220Z,1.609344
2018-12-23T01:21:55.563Z,1.609344
2018-12-23T01:22:07.926Z,0
2018-12-23T01:22:20.276Z,0
2018-12-23T01:22:32.756Z,3.218688
2018-12-23T01:22:45.124Z,3.218688
2018-12-23T01:22:57.480Z,4.828032
2018-12-23T01:23:09.838Z,3.218688
2018-12-23T01:23:22.163Z,3.218688
2018-12-23T01:23:34.536Z,3.218688
2018-12-23T01:23:46.947Z,3.218688
2018-12-23T01:23:59.368Z,3.218688
2018-12-23T01:24:11.794Z,0
2018-12-23T01:24:24.158Z,0
2018-12-23T01:24:36.505Z,1.609344
2018-12-23T01:24:48.921Z,3.218688
2018-12-23T01:25:01.289Z,3.218688
2018-12-23T01:25:13.653Z,4.828032
2018-12-23T01:25:26.000Z,6.437376
2018-12-23T01:25:38.335Z,6.437376
2018-12-23T01:25:50.682Z,6.437376
2018-12-23T01:26:03.071Z,3.218688
2018-12-23T01:26:15.412Z,3.218688
2018-12-23T01:26:27.769Z,3.218688
2018-12-23T01:26:40.129Z,3.218688
2018-12-23T01:26:52.565Z,3.218688
2018-12-23T01:27:04.930Z,6.437376
2018-12-23T01:27:17.466Z,6.437376
2018-12-23T01:27:30.067Z,6.437376
2018-12-23T01:27:42.421Z,6.437376
2018-12-23T01:27:54.767Z,6.437376
2018-12-23T01:28:07.110Z,3.218688
2018-12-23T01:28:19.449Z,3.218688
2018-12-23T01:28:31.873Z,3.218688
2018-12-23T01:28:44.217Z,3.218688
2018-12-23T01:28:56.562Z,3.218688
2018-12-23T01:29:08.929Z,0
2018-12-23T01:29:21.278Z,0
2018-12-23T01:29:33.622Z,1.609344
2018-12-23T01:29:45.961Z,1.609344
2018-12-23T01:29:58.423Z,1.609344
2018-12-23T01:30:10.764Z,3.218688
2018-12-23T01:30:23.112Z,6.437376
2018-12-23T01:30:35.441Z,6.437376
2018-12-23T01:30:47.832Z,6.437376
2018-12-23T01:31:00.180Z,6.437376
2018-12-23T01:31:12.526Z,3.218688
2018-12-23T01:31:24.895Z,3.218688
2018-12-23T01:31:37.276Z,3.218688
2018-12-23T01:31:49.612Z,3.218688
2018-12-23T01:32:01.962Z,3.218688
2018-12-23T01:32:14.313Z,3.218688
2018-12-23T01:32:26.682Z,3.218688
2018-12-23T01:32:39.013Z,3.218688
2018-12-23T01:32:51.361Z,6.437376
2018-12-23T01:33:03.704Z,3.218688
2018-12-23T01:33:16.064Z,3.218688
2018-12-23T01:33:28.413Z,3.218688
2018-12-23T01:33:40.757Z,3.218688
2018-12-23T01:33:53.097Z,9.656064
2018-12-23T01:34:07.662Z,6.437376
2018-12-23T01:34:20.024Z,6.437376
2018-12-23T01:34:40.349Z,6.437376
2018-12-23T01:34:52.704Z,6.437376
2018-12-23T01:35:05.063Z,1.609344
2018-12-23T01:35:17.532Z,1.609344
2018-12-23T01:35:38.310Z,3.218688
2018-12-23T01:35:50.820Z,3.218688
2018-12-23T01:36:03.178Z,3.218688
2018-12-23T01:36:15.612Z,3.218688
2018-12-23T01:36:27.962Z,3.218688
2018-12-23T01:36:40.459Z,6.437376
2018-12-23T01:36:52.798Z,6.437376
2018-12-23T01:37:05.133Z,1.609344
2018-12-23T01:37:17.598Z,1.609344
2018-12-23T01:37:29.944Z,3.218688
2018-12-23T01:37:42.267Z,8.04672
2018-12-23T01:37:54.726Z,8.04672
2018-12-23T01:38:07.077Z,3.218688
2018-12-23T01:38:19.417Z,3.218688
2018-12-23T01:38:31.763Z,3.218688
2018-12-23T01:38:44.163Z,3.218688
2018-12-23T01:38:56.500Z,4.828032
2018-12-23T01:39:08.941Z,1.609344
2018-12-23T01:39:21.439Z,3.218688
2018-12-23T01:39:33.795Z,3.218688
2018-12-23T01:39:46.220Z,3.218688
2018-12-23T01:39:58.677Z,6.437376
2018-12-23T01:40:11.046Z,3.218688
2018-12-23T01:40:23.541Z,4.828032
2018-12-23T01:40:35.877Z,4.828032
2018-12-23T01:40:48.227Z,4.828032
2018-12-23T01:41:00.577Z,4.828032
2018-12-23T01:41:14.803Z,3.218688
2018-12-23T01:41:27.246Z,3.218688
2018-12-23T01:41:39.606Z,3.218688
2018-12-23T01:41:51.946Z,3.218688
2018-12-23T01:42:04.297Z,0
2018-12-23T01:42:16.637Z,1.609344
2018-12-23T01:42:28.987Z,6.437376
2018-12-23T01:42:41.329Z,6.437376
2018-12-23T01:42:53.655Z,6.437376
2018-12-23T01:43:06.034Z,4.828032
2018-12-23T01:43:18.563Z,4.828032
2018-12-23T01:43:30.915Z,4.828032
2018-12-23T01:43:43.248Z,4.828032
2018-12-23T01:43:55.576Z,6.437376
2018-12-23T01:44:07.904Z,3.218688
2018-12-23T01:44:20.294Z,3.218688
2018-12-23T01:44:32.616Z,6.437376
2018-12-23T01:44:44.957Z,6.437376
2018-12-23T01:44:57.304Z,6.437376
2018-12-23T01:45:09.649Z,4.828032
2018-12-23T01:45:22.081Z,6.437376
2018-12-23T01:45:34.614Z,6.437376
2018-12-23T01:45:47.050Z,8.04672
2018-12-23T01:45:59.390Z,8.04672
2018-12-23T01:46:11.725Z,1.609344
2018-12-23T01:46:24.120Z,3.218688
2018-12-23T01:46:36.490Z,3.218688
2018-12-23T01:46:49.065Z,4.828032
2018-12-23T01:47:01.408Z,4.828032
2018-12-23T01:47:13.780Z,3.218688
2018-12-23T01:47:26.127Z,3.218688
2018-12-23T01:47:38.466Z,3.218688
2018-12-23T01:47:50.808Z,3.218688
2018-12-23T01:48:03.165Z,1.609344
2018-12-23T01:48:15.576Z,3.218688
2018-12-23T01:48:28.004Z,3.218688
2018-12-23T01:48:40.344Z,4.828032
2018-12-23T01:48:52.693Z,6.437376
2018-12-23T01:49:05.042Z,3.218688
2018-12-23T01:49:17.374Z,4.828032
2018-12-23T01:49:29.715Z,4.828032
2018-12-23T01:49:42.076Z,6.437376
2018-12-23T01:49:54.417Z,6.437376
2018-12-23T01:50:07.034Z,6.437376
2018-12-23T01:50:19.381Z,6.437376
2018-12-23T01:50:31.716Z,6.437376
2018-12-23T01:50:44.057Z,6.437376
2018-12-23T01:50:56.409Z,6.437376
2018-12-23T01:51:08.889Z,1.609344
2018-12-23T01:51:21.242Z,3.218688
2018-12-23T01:51:33.582Z,3.218688
2018-12-23T01:51:45.911Z,6.437376
2018-12-23T01:51:58.360Z,6.437376
2018-12-23T01:52:10.686Z,3.218688
2018-12-23T01:52:23.211Z,3.218688
2018-12-23T01:52:35.650Z,3.218688
2018-12-23T01:52:47.998Z,3.218688
2018-12-23T01:53:00.340Z,3.218688
2018-12-23T01:53:12.671Z,3.218688
2018-12-23T01:53:25.113Z,3.218688
2018-12-23T01:53:37.462Z,3.218688
2018-12-23T01:53:49.801Z,3.218688
2018-12-23T01:54:02.146Z,3.218688
2018-12-23T01:54:14.488Z,4.828032
2018-12-23T01:54:26.815Z,4.828032
2018-12-23T01:54:39.171Z,4.828032
2018-12-23T01:54:51.502Z,4.828032
2018-12-23T01:55:03.854Z,0
2018-12-23T01:55:16.370Z,1.609344
2018-12-23T01:55:28.771Z,3.218688
2018-12-23T01:55:41.131Z,3.218688
2018-12-23T01:55:53.475Z,3.218688
2018-12-23T01:56:05.811Z,1.609344
2018-12-23T01:56:18.178Z,6.437376
2018-12-23T01:56:30.575Z,6.437376
2018-12-23T01:56:42.928Z,6.437376
2018-12-23T01:56:55.253Z,6.437376
2018-12-23T01:57:07.644Z,1.609344
2018-12-23T01:57:19.983Z,1.609344
2018-12-23T01:57:32.345Z,6.437376
2018-12-23T01:57:44.691Z,6.437376
2018-12-23T01:57:57.021Z,6.437376
2018-12-23T01:58:09.393Z,1.609344
2018-12-23T01:58:21.758Z,4.828032
2018-12-23T01:58:34.079Z,6.437376
2018-12-23T01:58:46.412Z,6.437376
2018-12-23T01:58:58.759Z,6.437376
2018-12-23T01:59:11.102Z,6.437376
2018-12-23T01:59:23.502Z,6.437376
2018-12-23T01:59:35.852Z,6.437376
2018-12-23T01:59:48.205Z,6.437376
2018-12-23T02:00:00.626Z,6.437376
2018-12-23T02:00:13.243Z,4.828032
2018-12-23T02:00:25.605Z,4.828032
2018-12-23T02:00:37.987Z,4.828032
2018-12-23T02:00:50.355Z,6.437376
2018-12-23T02:01:02.712Z,8.04672
2018-12-23T02:01:15.049Z,4.828032
2018-12-23T02:01:27.401Z,4.828032
2018-12-23T02:01:39.745Z,4.828032
2018-12-23T02:01:52.085Z,6.437376
2018-12-23T02:02:04.423Z,3.218688
2018-12-23T02:02:16.816Z,3.218688
2018-12-23T02:02:29.180Z,3.218688
2018-12-23T02:02:41.777Z,3.218688
2018-12-23T02:02:54.120Z,6.437376
2018-12-23T02:03:06.489Z,1.609344
2018-12-23T02:03:18.849Z,3.218688
2018-12-23T02:03:31.202Z,3.218688
2018-12-23T02:03:43.561Z,3.218688
2018-12-23T02:03:55.910Z,3.218688
2018-12-23T02:04:08.268Z,3.218688
2018-12-23T02:04:20.597Z,3.218688
2018-12-23T02:04:32.937Z,4.828032
2018-12-23T02:04:45.280Z,4.828032
2018-12-23T02:04:57.618Z,4.828032
2018-12-23T02:05:10.002Z,1.609344
2018-12-23T02:05:22.359Z,3.218688
2018-12-23T02:05:34.691Z,3.218688
2018-12-23T02:05:54.978Z,8.04672
2018-12-23T02:06:07.333Z,3.218688
2018-12-23T02:06:21.373Z,3.218688
2018-12-23T02:06:33.741Z,3.218688
2018-12-23T02:06:46.166Z,3.218688
2018-12-23T02:06:58.512Z,3.218688
2018-12-23T02:07:10.886Z,9.656064
2018-12-23T02:07:23.241Z,9.656064
2018-12-23T02:07:35.573Z,9.656064
2018-12-23T02:07:47.945Z,9.656064
2018-12-23T02:08:00.307Z,9.656064
2018-12-23T02:08:12.775Z,6.437376
2018-12-23T02:08:25.278Z,6.437376
2018-12-23T02:08:37.619Z,9.656064
2018-12-23T02:08:49.958Z,9.656064
2018-12-23T02:09:02.349Z,9.656064
2018-12-23T02:09:14.710Z,4.828032
2018-12-23T02:09:27.127Z,6.437376
2018-12-23T02:09:39.475Z,6.437376
2018-12-23T02:09:51.813Z,8.04672
2018-12-23T02:10:04.147Z,1.609344
2018-12-23T02:10:16.486Z,6.437376
2018-12-23T02:10:28.862Z,6.437376
2018-12-23T02:10:41.205Z,9.656064
2018-12-23T02:10:53.555Z,9.656064
2018-12-23T02:11:06.020Z,6.437376
2018-12-23T02:11:18.369Z,6.437376
2018-12-23T02:11:30.720Z,6.437376
2018-12-23T02:11:43.073Z,6.437376
2018-12-23T02:11:55.422Z,6.437376
2018-12-23T02:12:07.766Z,3.218688
2018-12-23T02:12:20.112Z,6.437376
2018-12-23T02:12:32.458Z,8.04672
2018-12-23T02:12:44.856Z,8.04672
2018-12-23T02:12:57.185Z,8.04672
2018-12-23T02:13:09.531Z,8.04672
2018-12-23T02:13:21.879Z,8.04672
2018-12-23T02:13:34.247Z,8.04672
2018-12-23T02:13:46.748Z,8.04672
2018-12-23T02:13:59.175Z,8.04672
2018-12-23T02:14:11.534Z,3.218688
2018-12-23T02:14:23.884Z,8.04672
2018-12-23T02:14:36.235Z,8.04672
2018-12-23T02:14:48.583Z,8.04672
2018-12-23T02:15:00.934Z,8.04672
2018-12-23T02:15:13.315Z,4.828032
2018-12-23T02:15:25.648Z,9.656064
2018-12-23T02:15:37.991Z,9.656064
2018-12-23T02:15:50.342Z,9.656064
2018-12-23T02:16:02.690Z,9.656064
2018-12-23T02:16:15.031Z,4.828032
2018-12-23T02:16:29.627Z,8.04672
2018-12-23T02:16:41.986Z,8.04672
2018-12-23T02:16:54.326Z,8.04672
2018-12-23T02:17:06.670Z,4.828032
2018-12-23T02:17:19.128Z,9.656064
2018-12-23T02:17:31.471Z,9.656064
2018-12-23T02:17:43.952Z,9.656064
2018-12-23T02:17:56.307Z,9.656064
2018-12-23T02:18:08.651Z,4.828032
2018-12-23T02:18:21.098Z,8.04672
2018-12-23T02:18:33.446Z,8.04672
2018-12-23T02:18:45.799Z,8.04672
2018-12-23T02:18:58.158Z,8.04672
2018-12-23T02:19:10.532Z,8.04672
2018-12-23T02:19:22.905Z,8.04672
2018-12-23T02:19:35.266Z,8.04672
2018-12-23T02:19:47.615Z,8.04672
2018-12-23T02:19:59.959Z,8.04672
2018-12-23T02:20:12.306Z,3.218688
2018-12-23T02:20:24.675Z,4.828032
2018-12-23T02:20:37.026Z,4.828032
2018-12-23T02:20:49.368Z,4.828032
2018-12-23T02:21:01.728Z,4.828032
2018-12-23T02:21:14.086Z,3.218688
2018-12-23T02:21:26.523Z,3.218688
2018-12-23T02:21:38.993Z,3.218688
2018-12-23T02:21:51.355Z,3.218688
2018-12-23T02:22:03.841Z,0
2018-12-23T02:22:16.178Z,1.609344
2018-12-23T02:22:28.578Z,3.218688
2018-12-23T02:22:40.928Z,6.437376
2018-12-23T02:22:53.272Z,6.437376
2018-12-23T02:23:05.713Z,4.828032
2018-12-23T02:23:18.106Z,6.437376
2018-12-23T02:23:30.450Z,6.437376
2018-12-23T02:23:42.821Z,6.437376
2018-12-23T02:23:55.159Z,8.04672
2018-12-23T02:24:07.505Z,4.828032
2018-12-23T02:24:19.935Z,4.828032
2018-12-23T02:24:32.317Z,4.828032
2018-12-23T02:24:44.761Z,4.828032
2018-12-23T02:24:57.222Z,4.828032
2018-12-23T02:25:09.586Z,1.609344
2018-12-23T02:25:21.944Z,1.609344
2018-12-23T02:25:34.288Z,1.609344
2018-12-23T02:25:46.642Z,3.218688
2018-12-23T02:25:58.993Z,9.656064
2018-12-23T02:26:11.326Z,11.265408
2018-12-23T02:26:23.698Z,11.265408
2018-12-23T02:26:36.051Z,11.265408
2018-12-23T02:26:48.554Z,11.265408
2018-12-23T02:27:00.916Z,11.265408
2018-12-23T02:27:13.378Z,6.437376
2018-12-23T02:27:25.984Z,6.437376
2018-12-23T02:27:38.343Z,6.437376
2018-12-23T02:27:50.694Z,6.437376
2018-12-23T02:28:03.048Z,0
2018-12-23T02:28:15.376Z,1.609344
2018-12-23T02:28:27.729Z,1.609344
2018-12-23T02:28:40.070Z,1.609344
2018-12-23T02:28:52.406Z,4.828032
2018-12-23T02:29:04.733Z,3.218688
2018-12-23T02:29:17.192Z,3.218688
2018-12-23T02:29:29.548Z,3.218688
2018-12-23T02:29:41.999Z,3.218688
2018-12-23T02:29:54.410Z,3.218688
2018-12-23T02:30:07.185Z,1.609344
2018-12-23T02:30:19.766Z,1.609344
2018-12-23T02:30:32.143Z,1.609344
2018-12-23T02:30:44.627Z,1.609344
2018-12-23T02:30:56.979Z,4.828032
2018-12-23T02:31:09.373Z,4.828032